Time;durP1;ratioP1;P1;durP2;ratioP2;P2;SDS_P1;SDS_P2;PMS_P1;PMS_P2;Temp;Humidity;BMP_temperature;BMP_pressure;BME280_temperature;BME280_humidity;BME280_pressure;Samples;Min_cycle;Max_cycle;Signal;HPM_P1;HPM_P2
2022/07/05 00:00:05;;;;;;;0.35;0.35;;;18.20;99.90;;;;;;4440257;32;20112;-69
2022/07/05 00:02:31;;;;;;;0.25;0.25;;;18.10;99.90;;;;;;4438437;32;20447;-69
2022/07/05 00:04:56;;;;;;;0.40;0.40;;;18.20;99.90;;;;;;4436502;32;20089;-69
2022/07/05 00:07:22;;;;;;;0.70;0.40;;;18.10;99.90;;;;;;4443847;32;20097;-70
2022/07/05 00:09:51;;;;;;;0.30;0.30;;;18.10;99.90;;;;;;4436925;32;20089;-70
2022/07/05 00:12:18;;;;;;;0.52;0.30;;;18.20;99.90;;;;;;4438508;32;20077;-70
2022/07/05 00:14:45;;;;;;;0.88;0.80;;;18.20;99.90;;;;;;4433886;32;20164;-70
2022/07/05 00:17:12;;;;;;;0.22;0.22;;;18.20;99.90;;;;;;4438923;32;20084;-70
2022/07/05 00:19:38;;;;;;;0.35;0.35;;;18.00;99.90;;;;;;4426616;32;20667;-70
2022/07/05 00:22:04;;;;;;;0.40;0.40;;;18.00;99.90;;;;;;4414192;32;20551;-70
2022/07/05 00:24:30;;;;;;;0.57;0.40;;;18.10;99.90;;;;;;4414758;32;20490;-69
2022/07/05 00:26:55;;;;;;;0.37;0.37;;;18.10;99.90;;;;;;4441037;32;20111;-69
2022/07/05 00:29:21;;;;;;;0.43;0.43;;;18.10;99.90;;;;;;4446508;32;20076;-70
2022/07/05 00:31:47;;;;;;;0.40;0.40;;;18.10;99.90;;;;;;4446511;32;20184;-69
2022/07/05 00:34:12;;;;;;;0.32;0.32;;;18.00;99.90;;;;;;4440897;32;20073;-69
2022/07/05 00:36:38;;;;;;;0.52;0.37;;;18.00;99.90;;;;;;4440349;32;20080;-69
2022/07/05 00:39:05;;;;;;;0.70;0.40;;;18.00;99.90;;;;;;4438584;32;20077;-69
2022/07/05 00:41:30;;;;;;;0.40;0.40;;;17.80;99.90;;;;;;4441091;32;20520;-69
2022/07/05 00:43:58;;;;;;;0.32;0.32;;;17.70;99.90;;;;;;4444750;32;20060;-69
2022/07/05 00:46:24;;;;;;;0.30;0.30;;;17.80;99.90;;;;;;4445567;32;20483;-69
2022/07/05 00:48:50;;;;;;;0.40;0.40;;;17.80;99.90;;;;;;4432493;32;20506;-69
2022/07/05 00:51:16;;;;;;;0.30;0.30;;;17.80;99.90;;;;;;4428052;32;20559;-69
2022/07/05 00:53:43;;;;;;;0.93;0.60;;;17.70;99.90;;;;;;4412831;32;20249;-70
2022/07/05 00:56:10;;;;;;;0.57;0.57;;;17.70;99.90;;;;;;4433336;32;20561;-70
2022/07/05 00:58:36;;;;;;;0.30;0.30;;;17.80;99.90;;;;;;4443003;32;20226;-70
2022/07/05 01:01:04;;;;;;;0.30;0.30;;;17.90;99.90;;;;;;4445188;32;20423;-70
2022/07/05 01:03:30;;;;;;;0.40;0.40;;;17.70;99.90;;;;;;4443649;32;20091;-69
2022/07/05 01:05:55;;;;;;;0.55;0.40;;;17.60;99.90;;;;;;4437281;32;20108;-69
2022/07/05 01:08:23;;;;;;;0.20;0.20;;;17.70;99.90;;;;;;4438520;32;20153;-69
2022/07/05 01:10:49;;;;;;;0.30;0.30;;;17.80;99.90;;;;;;4435435;32;20066;-69
2022/07/05 01:13:15;;;;;;;0.37;0.37;;;17.50;99.90;;;;;;4423977;32;20101;-69
2022/07/05 01:15:41;;;;;;;0.55;0.55;;;17.50;99.90;;;;;;4445495;32;20060;-70
2022/07/05 01:18:08;;;;;;;0.40;0.40;;;17.50;99.90;;;;;;4433320;32;20105;-70
2022/07/05 01:20:35;;;;;;;0.35;0.35;;;17.60;99.90;;;;;;4424171;32;20148;-70
2022/07/05 01:23:02;;;;;;;0.50;0.50;;;17.40;99.90;;;;;;4416746;32;20105;-70
2022/07/05 01:25:29;;;;;;;0.57;0.45;;;17.50;99.90;;;;;;4429195;32;20061;-69
2022/07/05 01:27:56;;;;;;;1.00;0.70;;;17.50;99.90;;;;;;4440566;32;20064;-69
2022/07/05 01:30:22;;;;;;;0.30;0.30;;;17.50;99.90;;;;;;4438132;32;20081;-69
2022/07/05 01:32:48;;;;;;;4.90;0.85;;;17.60;99.90;;;;;;4440643;32;99966;-69
2022/07/05 01:35:20;;;;;;;0.45;0.45;;;17.60;99.90;;;;;;4438482;32;20124;-69
2022/07/05 01:37:46;;;;;;;0.20;0.20;;;17.50;99.90;;;;;;4443436;32;20135;-69
2022/07/05 01:40:13;;;;;;;1.85;0.88;;;17.60;99.90;;;;;;4436293;32;20604;-69
2022/07/05 01:42:38;;;;;;;0.30;0.30;;;17.60;99.90;;;;;;4443504;32;20064;-69
2022/07/05 01:45:04;;;;;;;0.60;0.30;;;17.60;99.90;;;;;;4438243;32;20174;-69
2022/07/05 01:47:35;;;;;;;0.28;0.28;;;17.60;99.90;;;;;;4435827;32;20101;-69
2022/07/05 01:50:02;;;;;;;;;;;17.50;99.90;;;;;;4422506;32;20540;-70
2022/07/05 01:52:29;;;;;;;0.50;0.50;;;17.60;99.90;;;;;;4416661;32;20011;-70
2022/07/05 01:54:54;;;;;;;0.30;0.30;;;17.60;99.90;;;;;;4418441;32;20113;-71
2022/07/05 01:57:20;;;;;;;0.28;0.28;;;17.40;99.90;;;;;;4441670;32;20060;-70
2022/07/05 01:59:45;;;;;;;2.22;1.08;;;17.30;99.90;;;;;;4439450;32;20231;-70
2022/07/05 02:02:11;;;;;;;0.30;0.30;;;17.40;99.90;;;;;;4442608;32;20526;-70
2022/07/05 02:04:37;;;;;;;0.30;0.30;;;17.40;99.90;;;;;;4434859;32;20066;-70
2022/07/05 02:07:05;;;;;;;0.85;0.65;;;17.40;99.90;;;;;;4438412;32;20093;-70
2022/07/05 02:09:30;;;;;;;0.30;0.30;;;17.40;99.90;;;;;;4440541;32;20143;-69
2022/07/05 02:11:56;;;;;;;0.45;0.45;;;17.30;99.90;;;;;;4435822;32;20081;-69
2022/07/05 02:14:21;;;;;;;0.30;0.30;;;17.30;99.90;;;;;;4438331;32;20133;-70
2022/07/05 02:16:47;;;;;;;0.30;0.30;;;17.30;99.90;;;;;;4440543;32;20400;-69
2022/07/05 02:19:13;;;;;;;0.30;0.30;;;17.40;99.90;;;;;;4427759;32;20096;-69
2022/07/05 02:21:39;;;;;;;0.30;0.30;;;17.40;99.90;;;;;;4420693;32;20382;-69
2022/07/05 02:24:05;;;;;;;0.20;0.20;;;17.30;99.90;;;;;;4410667;32;20116;-69
2022/07/05 02:26:30;;;;;;;0.20;0.20;;;17.20;99.90;;;;;;4436576;32;20542;-69
2022/07/05 02:28:56;;;;;;;0.30;0.30;;;17.00;99.90;;;;;;4438096;32;20075;-69
2022/07/05 02:31:21;;;;;;;0.30;0.30;;;17.00;99.90;;;;;;4441524;32;20094;-69
2022/07/05 02:33:47;;;;;;;0.30;0.30;;;16.90;99.90;;;;;;4439671;32;20066;-69
2022/07/05 02:36:13;;;;;;;0.28;0.28;;;16.90;99.90;;;;;;4435640;32;20532;-69
2022/07/05 02:38:40;;;;;;;0.20;0.20;;;16.90;99.90;;;;;;4437475;32;20077;-69
2022/07/05 02:41:06;;;;;;;0.30;0.30;;;16.80;99.90;;;;;;4439008;32;20077;-69
2022/07/05 02:43:33;;;;;;;0.20;0.20;;;16.80;99.90;;;;;;4442174;32;20459;-69
2022/07/05 02:45:59;;;;;;;0.30;0.30;;;16.80;99.90;;;;;;4441190;32;20314;-69
2022/07/05 02:48:24;;;;;;;0.40;0.40;;;16.80;99.90;;;;;;4431444;32;20092;-69
2022/07/05 02:50:50;;;;;;;0.20;0.20;;;16.80;99.90;;;;;;4429298;32;20807;-69
2022/07/05 02:53:15;;;;;;;0.30;0.30;;;16.80;99.90;;;;;;4416895;32;20249;-69
2022/07/05 02:55:40;;;;;;;0.37;0.37;;;16.90;99.90;;;;;;4428452;32;20115;-69
2022/07/05 02:58:06;;;;;;;0.30;0.30;;;16.90;99.90;;;;;;4438910;32;20520;-69
2022/07/05 03:00:32;;;;;;;0.30;0.30;;;16.80;99.90;;;;;;4438910;32;20082;-69
2022/07/05 03:02:57;;;;;;;0.30;0.30;;;16.90;99.90;;;;;;4439409;32;20065;-69
2022/07/05 03:05:23;;;;;;;0.93;0.50;;;16.80;99.90;;;;;;4434448;32;20127;-69
2022/07/05 03:07:48;;;;;;;1.15;0.43;;;16.70;99.90;;;;;;4438398;32;20520;-70
2022/07/05 03:10:14;;;;;;;2.85;1.00;;;16.70;99.90;;;;;;4438571;32;21272;-70
2022/07/05 03:12:39;;;;;;;0.30;0.30;;;16.70;99.90;;;;;;4442449;32;20065;-69
2022/07/05 03:15:06;;;;;;;0.65;0.65;;;16.60;99.90;;;;;;4434827;32;20077;-69
2022/07/05 03:17:31;;;;;;;0.20;0.20;;;16.70;99.90;;;;;;4438329;32;20142;-70
2022/07/05 03:19:57;;;;;;;0.30;0.30;;;16.70;99.90;;;;;;4428272;32;20445;-69
2022/07/05 03:22:22;;;;;;;0.20;0.20;;;16.80;99.90;;;;;;4418594;32;20090;-69
2022/07/05 03:24:48;;;;;;;0.37;0.37;;;16.80;99.90;;;;;;4425168;32;20064;-70
2022/07/05 03:27:13;;;;;;;0.40;0.40;;;16.90;99.90;;;;;;4440411;32;20497;-70
2022/07/05 03:29:39;;;;;;;0.28;0.28;;;17.00;99.90;;;;;;4438896;32;20514;-70
2022/07/05 03:32:05;;;;;;;0.30;0.30;;;17.00;99.90;;;;;;4435833;32;20069;-70
2022/07/05 03:34:30;;;;;;;0.45;0.45;;;17.00;99.90;;;;;;4433766;32;20533;-69
2022/07/05 03:36:56;;;;;;;0.30;0.30;;;17.10;99.90;;;;;;4441040;32;20549;-69
2022/07/05 03:39:21;;;;;;;0.30;0.30;;;17.00;99.90;;;;;;4436860;32;20077;-69
2022/07/05 03:41:47;;;;;;;0.20;0.20;;;17.10;99.90;;;;;;4436815;32;20065;-70
2022/07/05 03:44:13;;;;;;;0.32;0.32;;;17.10;99.90;;;;;;4435543;32;20427;-69
2022/07/05 03:46:38;;;;;;;0.30;0.30;;;17.00;99.90;;;;;;4435626;32;20064;-69
2022/07/05 03:49:04;;;;;;;0.40;0.40;;;16.90;99.90;;;;;;4422384;32;20443;-69
2022/07/05 03:51:29;;;;;;;0.40;0.40;;;17.10;99.90;;;;;;4419170;32;20084;-69
2022/07/05 03:53:55;;;;;;;0.22;0.22;;;17.10;99.90;;;;;;4413638;32;20101;-70
2022/07/05 03:56:22;;;;;;;0.40;0.40;;;17.20;99.90;;;;;;4433198;32;20149;-70
2022/07/05 03:58:48;;;;;;;0.80;0.80;;;17.20;99.90;;;;;;4441050;32;20076;-70
2022/07/05 04:01:14;;;;;;;1.80;0.45;;;17.20;99.90;;;;;;4445021;32;20089;-70
2022/07/05 04:03:40;;;;;;;0.37;0.37;;;17.10;99.90;;;;;;4437954;32;21576;-70
2022/07/05 04:06:06;;;;;;;2.80;0.50;;;17.10;99.90;;;;;;4436872;32;20116;-70
2022/07/05 04:08:31;;;;;;;0.30;0.30;;;17.30;99.90;;;;;;4431618;32;20101;-69
2022/07/05 04:10:56;;;;;;;0.30;0.30;;;17.40;99.90;;;;;;4440021;32;20065;-69
2022/07/05 04:13:22;;;;;;;0.20;0.20;;;17.40;99.90;;;;;;4436400;32;20077;-70
2022/07/05 04:15:48;;;;;;;0.32;0.32;;;17.50;99.90;;;;;;4438739;32;20406;-69
2022/07/05 04:18:13;;;;;;;0.30;0.30;;;17.50;99.90;;;;;;4435125;32;20205;-69
2022/07/05 04:20:39;;;;;;;0.20;0.20;;;17.60;99.90;;;;;;4423064;32;20109;-70
2022/07/05 04:23:04;;;;;;;0.30;0.30;;;17.70;99.90;;;;;;4392164;32;20406;-70
2022/07/05 04:25:30;;;;;;;0.30;0.30;;;17.60;99.90;;;;;;4400590;32;20142;-69
2022/07/05 04:27:56;;;;;;;0.30;0.30;;;17.70;99.90;;;;;;4409111;32;20187;-70
2022/07/05 04:30:24;;;;;;;1.77;0.95;;;17.60;99.90;;;;;;4409783;32;21008;-69
2022/07/05 04:32:49;;;;;;;0.22;0.22;;;17.60;99.90;;;;;;4407288;32;20368;-69
2022/07/05 04:35:16;;;;;;;1.12;0.52;;;17.80;99.90;;;;;;4426116;32;20561;-70
2022/07/05 04:37:42;;;;;;;0.50;0.50;;;17.80;99.90;;;;;;4440014;32;20143;-70
2022/07/05 04:40:11;;;;;;;0.28;0.28;;;17.80;99.90;;;;;;4441453;32;20069;-70
2022/07/05 04:42:37;;;;;;;0.30;0.30;;;17.80;99.90;;;;;;4445067;32;20131;-70
2022/07/05 04:45:03;;;;;;;0.30;0.30;;;17.90;99.90;;;;;;4440196;32;20060;-70
2022/07/05 04:47:28;;;;;;;5.72;0.60;;;18.00;99.90;;;;;;4441180;32;20062;-70
2022/07/05 04:49:57;;;;;;;0.30;0.30;;;17.90;99.90;;;;;;4424909;32;20451;-70
2022/07/05 04:52:22;;;;;;;0.32;0.32;;;18.10;99.90;;;;;;4407114;32;21104;-69
2022/07/05 04:54:48;;;;;;;0.20;0.20;;;18.10;99.90;;;;;;4396186;32;20098;-69
2022/07/05 04:57:13;;;;;;;0.37;0.37;;;18.10;99.90;;;;;;4429739;32;20090;-69
2022/07/05 04:59:39;;;;;;;0.45;0.40;;;18.20;99.90;;;;;;4439691;32;20089;-69
2022/07/05 05:02:04;;;;;;;0.50;0.50;;;18.30;99.90;;;;;;4425315;32;20076;-70
2022/07/05 05:04:30;;;;;;;0.30;0.30;;;18.30;99.90;;;;;;4404418;32;20749;-70
2022/07/05 05:06:56;;;;;;;0.25;0.25;;;18.30;99.90;;;;;;4401365;32;20077;-70
2022/07/05 05:09:21;;;;;;;0.30;0.30;;;18.30;99.90;;;;;;4395780;32;20089;-70
2022/07/05 05:11:47;;;;;;;0.30;0.30;;;18.40;99.90;;;;;;4389076;32;20135;-70
2022/07/05 05:14:14;;;;;;;0.20;0.20;;;18.50;99.90;;;;;;4388955;32;20093;-70
2022/07/05 05:16:39;;;;;;;0.30;0.30;;;18.50;99.90;;;;;;4407209;32;20164;-70
2022/07/05 05:19:05;;;;;;;0.30;0.30;;;18.50;99.90;;;;;;4345164;32;20239;-70
2022/07/05 05:21:30;;;;;;;0.30;0.30;;;18.60;99.90;;;;;;4346014;32;20117;-70
2022/07/05 05:23:56;;;;;;;0.30;0.30;;;18.70;99.90;;;;;;4316821;32;21122;-70
2022/07/05 05:26:22;;;;;;;0.20;0.20;;;18.80;99.90;;;;;;4341134;32;20116;-70
2022/07/05 05:28:50;;;;;;;0.20;0.20;;;18.90;99.90;;;;;;4342570;32;20919;-70
2022/07/05 05:31:16;;;;;;;0.30;0.30;;;18.90;99.90;;;;;;4334156;32;20359;-70
2022/07/05 05:33:42;;;;;;;0.20;0.20;;;18.90;99.90;;;;;;4355819;32;20912;-70
2022/07/05 05:36:07;;;;;;;0.75;0.60;;;19.10;99.90;;;;;;4356380;32;20476;-70
2022/07/05 05:38:33;;;;;;;0.20;0.20;;;19.10;99.90;;;;;;4362155;32;20085;-70
2022/07/05 05:40:59;;;;;;;0.30;0.30;;;19.10;99.90;;;;;;4364591;32;20243;-70
2022/07/05 05:43:26;;;;;;;0.30;0.30;;;19.20;99.70;;;;;;4384106;32;20094;-70
2022/07/05 05:45:52;;;;;;;0.30;0.30;;;19.20;99.80;;;;;;4399208;32;20077;-70
2022/07/05 05:48:19;;;;;;;0.20;0.20;;;19.20;99.40;;;;;;4410906;32;20420;-71
2022/07/05 05:50:48;;;;;;;0.20;0.20;;;19.30;99.10;;;;;;4399675;32;20332;-70
2022/07/05 05:53:14;;;;;;;0.20;0.20;;;19.30;99.00;;;;;;4403155;32;20084;-70
2022/07/05 05:55:41;;;;;;;0.20;0.20;;;19.30;99.20;;;;;;4419431;32;20081;-71
2022/07/05 05:58:15;;;;;;;0.30;0.30;;;19.40;99.00;;;;;;4424157;32;20834;-71
2022/07/05 06:00:42;;;;;;;0.60;0.60;;;19.50;98.50;;;;;;4404228;32;20097;-71
2022/07/05 06:03:08;;;;;;;2.10;0.85;;;19.40;98.80;;;;;;4394141;32;20719;-71
2022/07/05 06:05:34;;;;;;;0.30;0.30;;;19.40;98.80;;;;;;4402151;32;20270;-71
2022/07/05 06:08:00;;;;;;;0.20;0.20;;;19.40;99.60;;;;;;4417893;32;20157;-70
2022/07/05 06:10:28;;;;;;;0.30;0.30;;;19.50;99.20;;;;;;4423940;32;21775;-69
2022/07/05 06:12:56;;;;;;;0.22;0.22;;;19.60;99.20;;;;;;4426399;32;20076;-69
2022/07/05 06:15:21;;;;;;;0.20;0.20;;;19.60;98.90;;;;;;4423511;32;20078;-69
2022/07/05 06:17:47;;;;;;;0.30;0.30;;;19.70;98.70;;;;;;4426789;32;20091;-69
2022/07/05 06:20:16;;;;;;;0.28;0.28;;;19.70;99.00;;;;;;4400268;32;20301;-70
2022/07/05 06:22:42;;;;;;;0.30;0.30;;;19.80;99.30;;;;;;4399954;32;20076;-70
2022/07/05 06:25:08;;;;;;;0.30;0.30;;;19.80;98.80;;;;;;4424752;32;20076;-70
2022/07/05 06:27:39;;;;;;;0.20;0.20;;;19.80;98.90;;;;;;4428580;32;20101;-70
2022/07/05 06:30:06;;;;;;;1.00;0.73;;;19.80;98.90;;;;;;4397345;32;21623;-69
2022/07/05 06:32:31;;;;;;;0.40;0.40;;;19.90;99.50;;;;;;4390494;32;20117;-70
2022/07/05 06:34:57;;;;;;;0.73;0.70;;;19.90;98.70;;;;;;4391540;32;20093;-70
2022/07/05 06:37:22;;;;;;;12.30;1.05;;;20.10;99.00;;;;;;4402160;32;20077;-70
2022/07/05 06:39:48;;;;;;;3.15;0.95;;;20.10;99.10;;;;;;4422890;32;20089;-70
2022/07/05 06:42:13;;;;;;;0.40;0.40;;;20.10;98.90;;;;;;4423911;32;20165;-70
2022/07/05 06:44:39;;;;;;;0.57;0.57;;;20.20;99.00;;;;;;4415997;32;20104;-69
2022/07/05 06:47:04;;;;;;;0.95;0.40;;;20.30;98.90;;;;;;4427255;32;20436;-70
2022/07/05 06:49:30;;;;;;;0.30;0.30;;;20.40;98.60;;;;;;4394007;32;21134;-68
2022/07/05 06:51:55;;;;;;;0.40;0.40;;;20.40;98.90;;;;;;4389679;32;20308;-69
2022/07/05 06:54:21;;;;;;;0.32;0.32;;;20.40;98.80;;;;;;4417483;32;20166;-69
2022/07/05 06:56:46;;;;;;;0.30;0.30;;;20.50;98.80;;;;;;4425497;32;20981;-69
2022/07/05 06:59:11;;;;;;;0.30;0.30;;;20.60;98.80;;;;;;4413717;32;20330;-70
2022/07/05 07:01:37;;;;;;;0.20;0.20;;;20.60;98.70;;;;;;4396456;32;20354;-70
2022/07/05 07:04:03;;;;;;;0.30;0.30;;;20.70;98.90;;;;;;4387454;32;21686;-70
2022/07/05 07:06:28;;;;;;;12.27;2.25;;;20.80;98.70;;;;;;4389944;32;20092;-70
2022/07/05 07:09:25;;;;;;;0.80;0.30;;;20.80;98.90;;;;;;4421254;32;20077;-69
2022/07/05 07:11:39;;;;;;;0.25;0.25;;;20.90;99.10;;;;;;4408964;32;20085;-69
2022/07/05 07:14:04;;;;;;;0.73;0.65;;;21.00;98.30;;;;;;4416890;32;20181;-70
2022/07/05 07:16:30;;;;;;;0.40;0.40;;;21.10;98.50;;;;;;4418583;32;20081;-65
2022/07/05 07:18:57;;;;;;;0.30;0.30;;;21.10;98.40;;;;;;4407010;32;20294;-65
2022/07/05 07:21:22;;;;;;;2.25;0.65;;;21.20;98.10;;;;;;4394562;32;20164;-65
2022/07/05 07:23:47;;;;;;;0.30;0.30;;;21.20;98.00;;;;;;4407807;32;20960;-65
2022/07/05 07:26:13;;;;;;;0.43;0.43;;;21.20;97.70;;;;;;4424271;32;20089;-65
2022/07/05 07:28:40;;;;;;;0.30;0.30;;;21.30;97.80;;;;;;4425121;32;20415;-65
2022/07/05 07:31:06;;;;;;;0.20;0.20;;;21.30;97.40;;;;;;4391409;32;20069;-64
2022/07/05 07:33:32;;;;;;;0.30;0.30;;;21.50;96.90;;;;;;4380127;32;20207;-65
2022/07/05 07:35:58;;;;;;;0.30;0.30;;;21.60;96.70;;;;;;4391966;32;20077;-66
2022/07/05 07:38:24;;;;;;;0.60;0.60;;;21.80;96.80;;;;;;4421449;32;20544;-65
2022/07/05 07:40:50;;;;;;;0.30;0.30;;;21.90;96.20;;;;;;4417968;32;20409;-65
2022/07/05 07:43:16;;;;;;;0.62;0.50;;;21.90;95.80;;;;;;4418234;32;20790;-65
2022/07/05 07:45:42;;;;;;;0.45;0.30;;;22.00;96.00;;;;;;4413032;32;20081;-65
2022/07/05 07:48:08;;;;;;;0.30;0.30;;;22.10;95.60;;;;;;4410539;32;20556;-65
2022/07/05 07:50:34;;;;;;;1.37;1.00;;;22.20;95.20;;;;;;4395774;32;20235;-67
2022/07/05 07:52:59;;;;;;;0.62;0.62;;;22.40;95.50;;;;;;4398966;32;20227;-68
2022/07/05 07:55:25;;;;;;;0.40;0.40;;;22.40;94.90;;;;;;4420154;32;20145;-63
2022/07/05 07:57:50;;;;;;;0.40;0.40;;;22.50;95.20;;;;;;4428293;32;20096;-68
2022/07/05 08:00:16;;;;;;;0.30;0.30;;;22.40;94.40;;;;;;4407582;32;20145;-68
2022/07/05 08:02:41;;;;;;;0.20;0.20;;;22.30;94.70;;;;;;4388704;32;20658;-68
2022/07/05 08:05:09;;;;;;;0.20;0.20;;;22.30;94.70;;;;;;4387057;32;20719;-68
2022/07/05 08:07:35;;;;;;;0.30;0.30;;;22.40;94.50;;;;;;4396601;32;20104;-68
2022/07/05 08:10:00;;;;;;;0.30;0.30;;;22.60;94.20;;;;;;4423001;32;20281;-68
2022/07/05 08:12:26;;;;;;;0.20;0.20;;;22.70;93.70;;;;;;4427270;32;20502;-68
2022/07/05 08:14:51;;;;;;;0.20;0.20;;;22.80;93.50;;;;;;4419472;32;20370;-68
2022/07/05 08:17:20;;;;;;;0.25;0.25;;;23.00;93.60;;;;;;4419577;32;20551;-68
2022/07/05 08:21:47;;;;;;;0.20;0.20;;;22.90;92.90;;;;;;4397875;32;20591;-67
2022/07/05 08:22:31;;;;;;;0.30;0.30;;;22.90;93.40;;;;;;4395650;32;20632;-66
2022/07/05 08:24:57;;;;;;;0.40;0.40;;;22.80;93.30;;;;;;4420321;32;20165;-66
2022/07/05 08:27:23;;;;;;;0.20;0.20;;;22.70;93.60;;;;;;4429714;32;20101;-66
2022/07/05 08:29:49;;;;;;;0.20;0.20;;;22.80;93.30;;;;;;4399265;32;20075;-67
2022/07/05 08:32:15;;;;;;;0.45;0.45;;;22.90;93.70;;;;;;4391920;32;20342;-67
2022/07/05 08:34:41;;;;;;;0.20;0.20;;;23.00;93.00;;;;;;4396308;32;20213;-67
2022/07/05 08:37:07;;;;;;;5.00;0.45;;;23.00;93.20;;;;;;4400578;32;20101;-67
2022/07/05 08:39:33;;;;;;;0.37;0.37;;;23.10;93.80;;;;;;4421578;32;20065;-67
2022/07/05 08:42:00;;;;;;;0.10;0.10;;;23.30;92.80;;;;;;4415593;32;20745;-67
2022/07/05 08:44:28;;;;;;;0.45;0.45;;;23.20;92.40;;;;;;4417537;32;20077;-67
2022/07/05 08:46:55;;;;;;;0.20;0.20;;;23.20;92.40;;;;;;4422666;32;20536;-67
2022/07/05 08:49:23;;;;;;;2.08;0.85;;;23.40;92.90;;;;;;4407200;32;20258;-67
2022/07/05 08:51:49;;;;;;;0.40;0.40;;;23.60;92.40;;;;;;4391715;32;20215;-67
2022/07/05 08:54:16;;;;;;;0.28;0.28;;;23.60;91.80;;;;;;4406326;32;20444;-67
2022/07/05 08:56:43;;;;;;;0.20;0.20;;;23.60;91.40;;;;;;4408559;32;20128;-67
2022/07/05 08:59:08;;;;;;;0.30;0.30;;;23.60;92.20;;;;;;4403304;32;20203;-67
2022/07/05 09:01:35;;;;;;;0.30;0.30;;;23.60;91.90;;;;;;4388449;32;20388;-67
2022/07/05 09:04:03;;;;;;;0.20;0.20;;;23.60;91.70;;;;;;4382287;32;20093;-67
2022/07/05 09:06:32;;;;;;;0.30;0.30;;;23.80;92.60;;;;;;4397020;32;20080;-67
2022/07/05 09:08:59;;;;;;;0.47;0.47;;;23.90;91.10;;;;;;4427097;32;21158;-67
2022/07/05 09:11:37;;;;;;;0.30;0.30;;;23.70;91.30;;;;;;4423687;32;20081;-67
2022/07/05 09:14:05;;;;;;;4.72;0.88;;;23.50;91.50;;;;;;4412265;32;20077;-67
2022/07/05 09:16:32;;;;;;;0.20;0.20;;;23.60;92.00;;;;;;4417494;32;20061;-67
2022/07/05 09:19:05;;;;;;;0.20;0.20;;;23.80;91.80;;;;;;4393503;32;20209;-67
2022/07/05 09:21:31;;;;;;;2.20;0.85;;;23.80;91.70;;;;;;4384896;32;20463;-67
2022/07/05 09:23:58;;;;;;;0.22;0.22;;;23.80;91.60;;;;;;4402448;32;20588;-67
2022/07/05 09:26:48;;;;;;;0.15;0.15;;;23.90;91.80;;;;;;4416742;32;20080;-67
2022/07/05 09:29:17;;;;;;;3.62;0.37;;;24.10;91.30;;;;;;4404230;32;20105;-67
2022/07/05 09:31:45;;;;;;;0.25;0.25;;;24.30;90.70;;;;;;4391503;32;20074;-67
2022/07/05 09:34:12;;;;;;;0.30;0.30;;;24.30;90.70;;;;;;4378887;32;20314;-67
2022/07/05 09:36:55;;;;;;;0.20;0.20;;;24.20;90.80;;;;;;4376452;32;21035;-67
2022/07/05 09:39:35;;;;;;;0.52;0.30;;;24.20;90.90;;;;;;4407187;32;20141;-67
2022/07/05 09:42:23;;;;;;;0.30;0.30;;;24.30;90.50;;;;;;4407301;32;20270;-67
2022/07/05 09:44:50;;;;;;;0.20;0.20;;;24.50;90.40;;;;;;4410161;32;20637;-66
2022/07/05 09:47:18;;;;;;;1.17;0.28;;;24.50;90.10;;;;;;4412458;32;20070;-66
2022/07/05 09:49:49;;;;;;;0.20;0.20;;;24.50;89.90;;;;;;4389320;32;20559;-67
2022/07/05 09:52:35;;;;;;;0.13;0.13;;;24.70;89.30;;;;;;4372323;32;20301;-66
2022/07/05 09:55:07;;;;;;;1.20;0.65;;;24.50;90.10;;;;;;4409172;32;20153;-67
2022/07/05 09:57:35;;;;;;;0.30;0.20;;;24.60;90.30;;;;;;4423465;32;20501;-67
2022/07/05 10:00:04;;;;;;;0.20;0.20;;;24.80;89.50;;;;;;4394363;32;20373;-66
2022/07/05 10:02:39;;;;;;;0.30;0.30;;;24.80;88.70;;;;;;4375708;32;20475;-66
2022/07/05 10:05:25;;;;;;;0.17;0.17;;;24.90;88.40;;;;;;4377344;32;20215;-66
2022/07/05 10:07:55;;;;;;;0.28;0.28;;;24.70;88.20;;;;;;4388063;32;20069;-66
2022/07/05 10:10:24;;;;;;;0.70;0.40;;;24.90;88.60;;;;;;4411190;32;20085;-66
2022/07/05 10:12:51;;;;;;;0.20;0.20;;;25.10;87.90;;;;;;4411998;32;20096;-67
2022/07/05 10:15:21;;;;;;;0.20;0.20;;;25.40;87.70;;;;;;4412541;32;20089;-66
2022/07/05 10:17:54;;;;;;;0.20;0.20;;;25.50;86.40;;;;;;4407634;32;20262;-66
2022/07/05 10:20:29;;;;;;;0.15;0.15;;;25.40;86.60;;;;;;4388567;32;20085;-66
2022/07/05 10:22:56;;;;;;;0.20;0.20;;;25.50;86.90;;;;;;4389717;32;20593;-66
2022/07/05 10:25:23;;;;;;;0.20;0.20;;;25.20;86.50;;;;;;4415666;32;20145;-66
2022/07/05 10:27:53;;;;;;;0.20;0.20;;;25.30;86.60;;;;;;4421054;32;20117;-67
2022/07/05 10:30:20;;;;;;;0.20;0.20;;;25.30;85.50;;;;;;4394329;32;20233;-66
2022/07/05 10:32:46;;;;;;;0.20;0.20;;;25.10;86.10;;;;;;4379833;32;20104;-66
2022/07/05 10:35:12;;;;;;;0.60;0.40;;;25.40;85.10;;;;;;4384605;32;20365;-66
2022/07/05 10:37:38;;;;;;;0.20;0.20;;;25.50;82.60;;;;;;4390467;32;20097;-66
2022/07/05 10:40:06;;;;;;;0.25;0.25;;;25.40;84.30;;;;;;4414599;32;20594;-67
2022/07/05 10:42:37;;;;;;;0.20;0.20;;;25.80;83.90;;;;;;4413701;32;20580;-67
2022/07/05 10:45:03;;;;;;;0.60;0.55;;;25.90;82.20;;;;;;4414252;32;20829;-67
2022/07/05 10:47:29;;;;;;;0.25;0.25;;;25.50;82.30;;;;;;4415532;32;20086;-67
2022/07/05 10:50:04;;;;;;;0.43;0.43;;;25.20;83.70;;;;;;4389745;32;20431;-66
2022/07/05 10:52:30;;;;;;;0.20;0.20;;;25.10;83.90;;;;;;4382145;32;20472;-67
2022/07/05 10:55:18;;;;;;;0.30;0.30;;;25.00;84.70;;;;;;4413332;32;20076;-67
2022/07/05 10:57:43;;;;;;;0.10;0.10;;;25.30;85.60;;;;;;4422297;32;20077;-67
2022/07/05 11:00:11;;;;;;;0.10;0.10;;;25.60;84.30;;;;;;4395713;32;20858;-67
2022/07/05 11:02:37;;;;;;;0.25;0.25;;;26.00;84.20;;;;;;4382919;32;20281;-67
2022/07/05 11:05:03;;;;;;;0.30;0.30;;;26.20;83.00;;;;;;4381322;32;20511;-67
2022/07/05 11:07:57;;;;;;;0.20;0.20;;;26.20;82.50;;;;;;4393644;32;20468;-66
2022/07/05 11:10:22;;;;;;;0.10;0.10;;;26.20;82.50;;;;;;4406023;32;20068;-66
2022/07/05 11:12:48;;;;;;;0.20;0.20;;;25.70;82.00;;;;;;4412043;32;20491;-67
2022/07/05 11:15:14;;;;;;;1.10;0.65;;;25.40;82.70;;;;;;4414603;32;20101;-67
2022/07/05 11:17:40;;;;;;;8.57;1.85;;;25.20;83.10;;;;;;4411890;32;20148;-66
2022/07/05 11:20:08;;;;;;;0.32;0.32;;;24.90;83.80;;;;;;4392709;32;20207;-67
2022/07/05 11:22:37;;;;;;;0.32;0.32;;;24.80;84.90;;;;;;4390311;32;20761;-66
2022/07/05 11:25:04;;;;;;;0.20;0.20;;;25.00;84.70;;;;;;4399297;32;20401;-66
2022/07/05 11:27:32;;;;;;;0.08;0.08;;;25.90;83.70;;;;;;4427105;32;20070;-66
2022/07/05 11:29:57;;;;;;;0.22;0.22;;;26.80;79.80;;;;;;4391508;32;20947;-67
2022/07/05 11:32:36;;;;;;;0.43;0.30;;;26.60;79.20;;;;;;4386780;32;20398;-67
2022/07/05 11:35:30;;;;;;;0.30;0.30;;;26.10;80.60;;;;;;4385286;32;20626;-67
2022/07/05 11:38:07;;;;;;;0.10;0.10;;;26.20;80.50;;;;;;4403268;32;20105;-67
2022/07/05 11:40:34;;;;;;;0.10;0.10;;;26.70;78.60;;;;;;4407646;32;20062;-67
2022/07/05 11:43:01;;;;;;;0.10;0.10;;;26.80;77.80;;;;;;4409036;32;20521;-67
2022/07/05 11:45:27;;;;;;;0.20;0.20;;;26.40;78.50;;;;;;4411393;32;20189;-67
2022/07/05 11:47:56;;;;;;;0.32;0.17;;;25.90;80.40;;;;;;4410192;32;20138;-66
2022/07/05 11:50:26;;;;;;;0.10;0.10;;;25.80;81.20;;;;;;4383173;32;20470;-66
2022/07/05 11:52:52;;;;;;;0.40;0.40;;;25.60;82.50;;;;;;4383645;32;20120;-67
2022/07/05 11:55:18;;;;;;;0.10;0.10;;;25.50;83.10;;;;;;4419390;32;20097;-67
2022/07/05 11:57:52;;;;;;;0.22;0.22;;;25.80;83.10;;;;;;4418295;32;20434;-66
2022/07/05 12:00:29;;;;;;;0.30;0.30;;;25.50;82.00;;;;;;4390239;32;20415;-67
2022/07/05 12:02:55;;;;;;;0.20;0.20;;;25.40;82.20;;;;;;4374702;32;20700;-66
2022/07/05 12:05:21;;;;;;;0.20;0.20;;;25.10;82.50;;;;;;4372238;32;20155;-66
2022/07/05 12:07:50;;;;;;;2.83;0.57;;;25.80;81.60;;;;;;4390972;32;20564;-66
2022/07/05 12:12:48;;;;;;;0.10;0.10;;;26.60;77.90;;;;;;4408359;32;20137;-67
2022/07/05 12:13:05;;;;;;;0.10;0.10;;;27.50;75.90;;;;;;4395234;32;20076;-67
2022/07/05 12:15:31;;;;;;;0.10;0.10;;;28.80;74.10;;;;;;4399450;32;20077;-67
2022/07/05 12:18:03;;;;;;;0.03;0.03;;;29.40;71.60;;;;;;4404333;32;20805;-67
2022/07/05 12:20:29;;;;;;;7.22;0.30;;;29.40;70.50;;;;;;4393359;32;20385;-64
2022/07/05 12:22:54;;;;;;;0.40;0.40;;;29.90;69.20;;;;;;4390752;32;20269;-66
2022/07/05 12:25:22;;;;;;;0.10;0.10;;;30.40;68.70;;;;;;4413744;32;20229;-68
2022/07/05 12:27:49;;;;;;;0.00;0.00;;;30.40;67.60;;;;;;4403952;32;20308;-67
2022/07/05 12:30:16;;;;;;;0.13;0.13;;;30.90;66.50;;;;;;4389845;32;20249;-65
2022/07/05 12:33:03;;;;;;;0.47;0.47;;;31.50;64.40;;;;;;4370797;32;20074;-64
2022/07/05 12:35:34;;;;;;;0.32;0.30;;;31.30;63.90;;;;;;4355206;32;20114;-67
2022/07/05 12:38:09;;;;;;;0.75;0.30;;;30.90;65.10;;;;;;4398421;32;20149;-65
2022/07/05 12:40:38;;;;;;;0.00;0.00;;;30.80;65.40;;;;;;4395250;32;20073;-65
2022/07/05 12:43:09;;;;;;;0.20;0.20;;;30.40;66.10;;;;;;4403281;32;20074;-65
2022/07/05 12:45:36;;;;;;;0.10;0.10;;;30.80;64.80;;;;;;4393809;32;20093;-66
2022/07/05 12:48:04;;;;;;;1.65;0.30;;;30.90;63.20;;;;;;4399512;32;20216;-66